| time (UTC) | temp F | wind direction | speed knots | gust knots | rain 1hr in | rain 24hr in | rain mn in | humidity % | barometer mb |
| 20260507093057 | 47 | 1 | 3.5 | 7.0 | 0.00 | 0.03 | 0.00 | 87 | 1016.2 |
| 20260507092058 | 48 | 320 | 3.5 | 6.1 | 0.00 | 0.04 | 0.00 | 88 | 1016.0 |
| 20260507091058 | 46 | 358 | 3.5 | 7.8 | 0.00 | 0.05 | 0.00 | 89 | 1016.1 |
| 20260507090059 | 46 | 3 | 4.3 | 7.8 | 0.00 | 0.06 | 0.00 | 90 | 1016.1 |
| 20260507085058 | 46 | 3 | 4.3 | 7.0 | 0.00 | 0.07 | 0.00 | 92 | 1016.1 |
| 20260507084059 | 45 | 342 | 3.5 | 5.2 | 0.00 | 0.08 | 0.00 | 93 | 1016.2 |
| 20260507083100 | 44 | 344 | 2.6 | 5.2 | 0.00 | 0.09 | 0.00 | 92 | 1016.1 |
| 20260507081100 | 44 | 351 | 2.6 | 6.1 | 0.00 | 0.11 | 0.00 | 94 | 1016.1 |
| 20260507080055 | 44 | 4 | 2.6 | 7.8 | 0.00 | 0.12 | 0.00 | 95 | 1016.1 |
| 20260507075100 | 43 | 12 | 3.5 | 6.1 | 0.00 | 0.13 | 0.00 | 96 | 1015.9 |
| 20260507072057 | 42 | 345 | 3.5 | 7.0 | 0.00 | 0.15 | 0.00 | 98 | 1015.8 |
| 20260507071058 | 42 | 349 | 2.6 | 4.3 | 0.00 | 0.16 | 0.00 | 98 | 1015.8 |
| 20260507070057 | 42 | 318 | 3.5 | 6.1 | 0.00 | 0.16 | 0.00 | 99 | 1015.7 |
| 20260507065055 | 42 | 316 | 2.6 | 5.2 | 0.00 | 0.17 | 0.00 | 99 | 1015.6 |
| 20260507064056 | 42 | 335 | 2.6 | 5.2 | 0.00 | 0.17 | 0.00 | 99 | 1015.5 |
| 20260507063053 | 42 | 338 | 2.6 | 4.3 | 0.00 | 0.17 | 0.00 | 10 | 1015.5 |
| 20260507060056 | 41 | 8 | 3.5 | 6.1 | 0.00 | 0.17 | 0.00 | 10 | 1015.3 |
| 20260507055051 | 41 | 6 | 3.5 | 5.2 | 0.00 | 0.17 | 0.00 | 10 | 1015.2 |
| 20260507054056 | 41 | 14 | 3.5 | 6.1 | 0.00 | 0.17 | 0.00 | 10 | 1015.2 |
| 20260507052056 | 41 | 16 | 4.3 | 7.0 | 0.00 | 0.17 | 0.00 | 10 | 1014.9 |
| 20260507051057 | 41 | 15 | 4.3 | 7.8 | 0.00 | 0.17 | 0.00 | 10 | 1014.7 |
| 20260507050055 | 41 | 11 | 4.3 | 6.1 | 0.00 | 0.17 | 0.00 | 10 | 1014.6 |
| 20260507045056 | 41 | 16 | 4.3 | 6.1 | 0.00 | 0.17 | 0.00 | 10 | 1014.5 |
| 20260507044058 | 41 | 18 | 3.5 | 7.0 | 0.00 | 0.18 | 0.00 | 10 | 1014.5 |
| 20260507043056 | 41 | 16 | 3.5 | 4.3 | 0.00 | 0.18 | 0.00 | 10 | 1014.4 |
| 20260507042057 | 40 | 20 | 3.5 | 6.1 | 0.00 | 0.18 | 0.00 | 10 | 1014.3 |
| 20260507041055 | 40 | 20 | 3.5 | 7.0 | 0.00 | 0.18 | 0.00 | 10 | 1014.2 |
| 20260507040058 | 40 | 18 | 3.5 | 6.1 | 0.00 | 0.19 | 0.00 | 10 | 1014.2 |
| 20260507035056 | 40 | 17 | 3.5 | 6.1 | 0.00 | 0.19 | 0.00 | 10 | 1014.1 |
| 20260507034056 | 40 | 21 | 3.5 | 5.2 | 0.00 | 0.19 | 0.00 | 10 | 1014.0 |
| 20260507033055 | 40 | 12 | 2.6 | 4.3 | 0.00 | 0.19 | 0.00 | 10 | 1014.0 |
| 20260507032057 | 40 | 19 | 3.5 | 4.3 | 0.00 | 0.19 | 0.00 | 10 | 1014.0 |
| 20260507031055 | 40 | 19 | 3.5 | 6.1 | 0.00 | 0.20 | 0.00 | 10 | 1013.9 |
| 20260507025054 | 40 | 20 | 3.5 | 5.2 | 0.00 | 0.20 | 0.00 | 10 | 1013.7 |
| 20260507024054 | 40 | 33 | 3.5 | 7.0 | 0.00 | 0.20 | 0.00 | 10 | 1013.7 |
| 20260507023057 | 41 | 32 | 5.2 | 7.8 | 0.00 | 0.20 | 0.00 | 10 | 1013.7 |
| 20260507022057 | 41 | 40 | 4.3 | 7.0 | 0.00 | 0.20 | 0.00 | 10 | 1013.6 |
| 20260507021056 | 41 | 35 | 4.3 | 7.0 | 0.00 | 0.20 | 0.00 | 10 | 1013.4 |
| 20260507020055 | 41 | 12 | 4.3 | 8.7 | 0.00 | 0.21 | 0.00 | 10 | 1013.3 |
| 20260507013054 | 41 | 10 | 5.2 | 8.7 | 0.00 | 0.22 | 0.00 | 10 | 1013.3 |
| 20260507012053 | 41 | 18 | 5.2 | 8.7 | 0.00 | 0.22 | 0.00 | 10 | 1013.3 |
| 20260507011057 | 41 | 20 | 4.3 | 7.8 | 0.00 | 0.23 | 0.00 | 10 | 1013.2 |
| 20260507010059 | 41 | 16 | 6.1 | 9.6 | 0.00 | 0.23 | 0.00 | 10 | 1013.2 |
| 20260507005055 | 41 | 20 | 5.2 | 7.8 | 0.00 | 0.23 | 0.00 | 10 | 1013.2 |
| 20260507004057 | 41 | 18 | 6.1 | 9.6 | 0.00 | 0.23 | 0.00 | 10 | 1013.2 |
| 20260507003055 | 41 | 8 | 5.2 | 8.7 | 0.00 | 0.23 | 0.00 | 10 | 1013.0 |
| 20260507002056 | 42 | 9 | 5.2 | 7.8 | 0.00 | 0.23 | 0.00 | 10 | 1012.9 |
| 20260507001055 | 42 | 14 | 4.3 | 7.0 | 0.00 | 0.23 | 0.00 | 10 | 1012.9 |
| 20260506234104 | 42 | 8 | 4.3 | 8.7 | 0.00 | 0.24 | 0.00 | 10 | 1012.8 |
| 20260506233103 | 42 | 14 | 4.3 | 7.8 | 0.00 | 0.24 | 0.00 | 10 | 1012.8 |
| 20260506232101 | 42 | 10 | 3.5 | 6.1 | 0.00 | 0.24 | 0.00 | 10 | 1012.8 |
| 20260506231102 | 42 | 22 | 5.2 | 7.8 | 0.00 | 0.24 | 0.00 | 10 | 1012.7 |
| 20260506230105 | 42 | 21 | 6.1 | 9.6 | 0.00 | 0.25 | 0.00 | 10 | 1012.6 |
| 20260506225101 | 42 | 25 | 5.2 | 7.8 | 0.00 | 0.25 | 0.00 | 10 | 1012.7 |
| 20260506223100 | 42 | 18 | 4.3 | 7.8 | 0.00 | 0.27 | 0.00 | 10 | 1012.6 |
| 20260506222104 | 42 | 9 | 3.5 | 6.1 | 0.00 | 0.28 | 0.00 | 99 | 1012.4 |
| 20260506221102 | 42 | 4 | 3.5 | 6.1 | 0.00 | 0.28 | 0.00 | 99 | 1012.3 |
| 20260506220112 | 42 | 5 | 3.5 | 7.0 | 0.00 | 0.28 | 0.00 | 99 | 1012.2 |
| 20260506215109 | 42 | 352 | 3.5 | 7.8 | 0.00 | 0.29 | 0.28 | 99 | 1012.1 |
| 20260506214108 | 42 | 358 | 4.3 | 7.8 | 0.00 | 0.29 | 0.28 | 99 | 1012.0 |
| 20260506213108 | 41 | 244 | 3.5 | 6.1 | 0.00 | 0.30 | 0.28 | 99 | 1012.0 |
| 20260506212107 | 41 | 9 | 3.5 | 7.0 | 0.00 | 0.31 | 0.28 | 99 | 1012.0 |
| 20260506211106 | 41 | 8 | 5.2 | 8.7 | 0.00 | 0.31 | 0.28 | 99 | 1011.9 |
| 20260506205106 | 41 | 18 | 6.1 | 9.6 | 0.00 | 0.31 | 0.28 | 99 | 1011.9 |
| 20260506204105 | 41 | 24 | 5.2 | 8.7 | 0.00 | 0.31 | 0.28 | 99 | 1011.8 |
| 20260506203108 | 41 | 24 | 4.3 | 7.8 | 0.00 | 0.31 | 0.28 | 98 | 1011.7 |
| 20260506202109 | 41 | 22 | 5.2 | 7.8 | 0.00 | 0.32 | 0.28 | 98 | 1011.6 |
| 20260506201109 | 41 | 20 | 5.2 | 7.8 | 0.00 | 0.33 | 0.28 | 98 | 1011.4 |
| 20260506200108 | 41 | 18 | 6.1 | 7.8 | 0.00 | 0.35 | 0.28 | 98 | 1011.3 |
| 20260506195106 | 41 | 17 | 4.3 | 7.0 | 0.00 | 0.36 | 0.28 | 98 | 1011.3 |
| 20260506193108 | 42 | 18 | 3.5 | 6.1 | 0.00 | 0.37 | 0.28 | 97 | 1011.2 |
| 20260506192107 | 42 | 19 | 4.3 | 6.1 | 0.00 | 0.38 | 0.28 | 97 | 1011.1 |
| 20260506191105 | 42 | 18 | 4.3 | 7.0 | 0.00 | 0.39 | 0.28 | 97 | 1011.1 |
| 20260506184101 | 43 | 10 | 5.2 | 7.8 | 0.00 | 0.42 | 0.28 | 96 | 1010.9 |
| 20260506183107 | 44 | 13 | 5.2 | 8.7 | 0.00 | 0.43 | 0.28 | 96 | 1010.7 |
| 20260506182106 | 44 | 17 | 6.1 | 9.6 | 0.00 | 0.46 | 0.28 | 96 | 1010.6 |
| 20260506181100 | 44 | 21 | 7.0 | 9.6 | 0.00 | 0.47 | 0.28 | 96 | 1010.4 |
| 20260506180107 | 45 | 13 | 6.1 | 10.4 | 0.00 | 0.49 | 0.28 | 96 | 1010.2 |
| 20260506175105 | 45 | 10 | 6.1 | 12.2 | 0.00 | 0.50 | 0.28 | 95 | 1010.1 |
| 20260506174103 | 45 | 14 | 6.1 | 10.4 | 0.00 | 0.52 | 0.28 | 95 | 1009.9 |
| 20260506173100 | 45 | 16 | 7.0 | 11.3 | 0.00 | 0.54 | 0.28 | 96 | 1009.8 |
| 20260506172104 | 45 | 15 | 5.2 | 9.6 | 0.00 | 0.56 | 0.28 | 96 | 1009.9 |
| 20260506171102 | 45 | 18 | 5.2 | 8.7 | 0.00 | 0.57 | 0.28 | 97 | 1009.8 |
| 20260506170059 | 45 | 11 | 4.3 | 8.7 | 0.00 | 0.58 | 0.28 | 96 | 1009.8 |
| 20260506165058 | 45 | 11 | 5.2 | 8.7 | 0.00 | 0.59 | 0.28 | 97 | 1009.8 |
| 20260506164100 | 44 | 16 | 5.2 | 8.7 | 0.00 | 0.60 | 0.28 | 99 | 1009.8 |
| 20260506163059 | 44 | 15 | 5.2 | 8.7 | 0.00 | 0.61 | 0.28 | 10 | 1009.8 |
| 20260506162101 | 44 | 15 | 4.3 | 7.8 | 0.00 | 0.61 | 0.28 | 10 | 1009.9 |
| 20260506161100 | 44 | 1 | 4.3 | 7.8 | 0.00 | 0.61 | 0.28 | 10 | 1010.0 |
| 20260506160059 | 44 | 359 | 4.3 | 7.8 | 0.00 | 0.61 | 0.28 | 10 | 1010.0 |
| 20260506155101 | 44 | 8 | 5.2 | 8.7 | 0.00 | 0.63 | 0.28 | 10 | 1009.9 |
| 20260506154105 | 44 | 11 | 5.2 | 9.6 | 0.00 | 0.64 | 0.28 | 10 | 1009.7 |
| 20260506153101 | 44 | 10 | 6.1 | 10.4 | 0.00 | 0.65 | 0.28 | 10 | 1009.5 |
| 20260506152100 | 44 | 358 | 5.2 | 11.3 | 0.00 | 0.65 | 0.28 | 10 | 1009.5 |
| 20260506151104 | 44 | 1 | 4.3 | 7.8 | 0.00 | 0.65 | 0.28 | 10 | 1009.4 |
| 20260506150059 | 44 | 8 | 6.1 | 9.6 | 0.00 | 0.65 | 0.28 | 10 | 1009.4 |
| 20260506144058 | 44 | 280 | 4.3 | 9.6 | 0.01 | 0.65 | 0.28 | 10 | 1009.4 |
| 20260506143057 | 45 | 332 | 4.3 | 8.7 | 0.01 | 0.65 | 0.28 | 10 | 1009.4 |
| 20260506142059 | 45 | 334 | 6.1 | 10.4 | 0.01 | 0.66 | 0.28 | 10 | 1009.4 |
| 20260506141058 | 45 | 351 | 5.2 | 8.7 | 0.01 | 0.66 | 0.28 | 10 | 1009.3 |
| 20260506140105 | 44 | 331 | 5.2 | 10.4 | 0.01 | 0.66 | 0.28 | 10 | 1009.4 |
| 20260506135100 | 44 | 331 | 4.3 | 7.8 | 0.01 | 0.66 | 0.28 | 10 | 1009.4 |
| 20260506134059 | 44 | 340 | 4.3 | 7.8 | 0.00 | 0.65 | 0.28 | 10 | 1009.4 |
| 20260506133100 | 45 | 355 | 5.2 | 8.7 | 0.00 | 0.65 | 0.28 | 10 | 1009.4 |
| 20260506132059 | 44 | 84 | 6.1 | 10.4 | 0.00 | 0.65 | 0.28 | 10 | 1009.3 |
| 20260506131101 | 44 | 1 | 6.1 | 11.3 | 0.00 | 0.65 | 0.28 | 10 | 1009.3 |
| 20260506130059 | 44 | 360 | 5.2 | 10.4 | 0.00 | 0.65 | 0.28 | 10 | 1009.2 |
| 20260506125058 | 44 | 1 | 5.2 | 8.7 | 0.00 | 0.65 | 0.28 | 10 | 1009.1 |
| 20260506123100 | 44 | 14 | 7.0 | 12.2 | 0.00 | 0.65 | 0.28 | 10 | 1009.0 |
| 20260506122058 | 44 | 9 | 7.0 | 10.4 | 0.00 | 0.65 | 0.28 | 10 | 1008.8 |
| 20260506114058 | 44 | 1 | 5.2 | 10.4 | 0.00 | 0.65 | 0.28 | 10 | 1008.6 |
| 20260506113059 | 44 | 17 | 6.1 | 9.6 | 0.01 | 0.65 | 0.28 | 10 | 1008.5 |
| 20260506112059 | 44 | 5 | 6.1 | 9.6 | 0.01 | 0.65 | 0.28 | 10 | 1008.5 |
| 20260506111058 | 44 | 360 | 4.3 | 8.7 | 0.01 | 0.68 | 0.28 | 10 | 1008.4 |
| 20260506110057 | 44 | 360 | 5.2 | 10.4 | 0.02 | 0.69 | 0.28 | 10 | 1008.3 |
| 20260506105057 | 44 | 343 | 5.2 | 11.3 | 0.02 | 0.72 | 0.28 | 10 | 1008.3 |
| 20260506104058 | 44 | 338 | 5.2 | 10.4 | 0.02 | 0.72 | 0.28 | 10 | 1008.3 |
| 20260506103059 | 44 | 146 | 5.2 | 9.6 | 0.02 | 0.72 | 0.28 | 10 | 1008.3 |
| 20260506102059 | 44 | 7 | 5.2 | 9.6 | 0.02 | 0.72 | 0.27 | 10 | 1008.2 |
| 20260506101057 | 44 | 347 | 4.3 | 8.7 | 0.03 | 0.72 | 0.27 | 10 | 1008.3 |
| 20260506100056 | 44 | 345 | 4.3 | 10.4 | 0.04 | 0.72 | 0.27 | 10 | 1008.2 |
| 20260506094057 | 44 | 343 | 4.3 | 8.7 | 0.06 | 0.71 | 0.26 | 10 | 1008.1 |